Council Grove, KS

6:59 AM CST on December 18, 2014 (GMT -0600)
Emporia Municipal | Change Station
CLOSE
Current Station
Airport
Location: Emporia,
Elevation: 1207 ft
Nearby Weather Stations
Active Advisory: Winter Weather Advisory

Elev 1207 ft 38.33 °N, 96.19 °W | Updated 6 minutes ago

Snow
Snow
28 °F
Feels Like 23 °F
N
5
Wind Variable Wind from ENE

Today
High -- | Low -- °F
--% Chance of Precip.
Yesterday
High -- | Low -- °F
Precip. -- in
7:38 AM 5:06 PM
Waning Crescent, 14% visible
Pressure 30.22 in
Visibility 1.8 miles
Clouds Overcast 1200 ft
Windchill 23 °F
Dew Point 27 °F
Humidity 96%
Rainfall 0.00 in
Snow Depth Not available.
UV 0 out of 12
Pollen .10 out of 12
Air Quality Not available.
Flu Activity Not available.
METAR KEMP 181253Z AUTO 07004KT 1 3/4SM -SN BR OVC012 M02/M03 A3018 RMK AO2 SLP234 P0000 T10221028

More Conditions Fewer Conditions

Pressure 30.22 in
Visibility 1.8 miles
Clouds Overcast 1200 ft
Windchill 23 °F
Dew Point 27 °F
Humidity 96%
Rainfall 0.00 in
Snow Depth Not available.
UV 0 out of 12
Pollen .10 out of 12
Air Quality Not available.
Flu Activity Not available.
METAR KEMP 181253Z AUTO 07004KT 1 3/4SM -SN BR OVC012 M02/M03 A3018 RMK AO2 SLP234 P0000 T10221028

More Conditions Fewer Conditions

10-Day Weather Forecast

Almanac

Astronomy

Dec. 18, 2014 Rise Set
Actual Time
Civil Twilight
Nautical Twilight
Astronomical Twilight
Moon
Length of Visible Light
Length of Day
Tomorrow will be .
, % of the Moon is Illuminated

Today's Extremes

State Highs State Lows

Community

WunderPhotos

Upload Photos

1,778,923 photos uploaded!

WunderBlogs® & News

Nearby

Air Quality

  Air Quality AQ Index Pollutant
Not available.

Snow Depth

Station Depth Elevation

Earthquake Activity

City Distance Mag. Time & Date
Minimum magnitude displayed is 2.5.

Coastal Water Temperatures

Place Temperature

Nearby Weather Stations